This is the latest recevied weather packets stored in our database for station/object WX4HP-13. If no packets are shown the sender has not sent any weather packets the latest 10 day(s).
| Time | Temp. | Humidity | Pressure | Rain* | Wind** | Luminosity | Snow |
|---|---|---|---|---|---|---|---|
| 1777867497 | 7.22° C | 92% | 1019 hPa | 0 mm | - | - | - |
| 1777867472 | 7.22° C | 91% | 1019.1 hPa | 0 mm | - | - | - |
| 1777867195 | 7.22° C | 91% | 1019.1 hPa | 0 mm | - | - | - |
| 1777866897 | 7.22° C | 91% | 1019 hPa | 0 mm | - | - | - |
| 1777866597 | 7.22° C | 91% | 1019.2 hPa | 0 mm | - | - | - |
| 1777866297 | 7.78° C | 91% | 1019.1 hPa | 0 mm | - | - | - |
| 1777865996 | 7.78° C | 91% | 1019.2 hPa | 0 mm | - | - | - |
| 1777865697 | 7.78° C | 92% | 1019.3 hPa | 0 mm | - | - | - |
| 1777865398 | 7.78° C | 91% | 1019.3 hPa | 0 mm | - | - | - |
| 1777865097 | 7.78° C | 91% | 1019.5 hPa | 0 mm | - | - | - |
| 1777864797 | 7.78° C | 91% | 1019.5 hPa | 0 mm | - | - | - |
| 1777864497 | 7.78° C | 90% | 1019.5 hPa | 0 mm | - | - | - |
| 1777864197 | 7.78° C | 90% | 1019.5 hPa | 0 mm | - | - | - |
| 1777863897 | 7.78° C | 89% | 1019.3 hPa | 0 mm | - | - | - |
| 1777863597 | 7.78° C | 89% | 1019.3 hPa | 0 mm | - | - | - |
| 1777863297 | 7.78° C | 88% | 1019.2 hPa | 0 mm | - | - | - |
| 1777862997 | 7.78° C | 87% | 1019 hPa | 0 mm | - | - | - |
| 1777862696 | 8.33° C | 86% | 1018.9 hPa | 0 mm | - | - | - |
| 1777862397 | -17.78° C | 100% | 0 hPa | 0 mm | - | - | - |
| 1777862096 | -17.78° C | 100% | 0 hPa | 0 mm | - | - | - |
| 1777861796 | -17.78° C | 100% | 0 hPa | 0 mm | - | - | - |
| 1777861496 | 8.89° C | 84% | 1018.7 hPa | 0 mm | - | - | - |
| 1777861196 | 8.89° C | 83% | 1018.6 hPa | 0 mm | - | - | - |
| 1777860897 | 8.89° C | 82% | 1018.5 hPa | 0 mm | - | - | - |
| 1777860595 | 8.89° C | 80% | 1018.5 hPa | 0 mm | - | - | - |
* Rain latest hour (hover to see other rain measurements)
** Current wind speed in m/s (hover to see current wind gust speed)